Enterprise, Oklahoma
Current Conditions -  °F | °C
As of 2:15 AM on Sunday 23 Nov 2014 (Local Time) from KGZL Reporting Station
Haze Haze  
Wind Chill: 54°   Ceiling: 2700
Heat Index: 54°   Visibility: 5mi
Dew Point: 54°   Wind: 7mph
Humidity: 100%   Direction: 100°E
Pressure: 29.65"   Gusts: NA
Location:  35.2928°N, 95.0844°W
Report Text: KGZL 230815Z AUTO 10006KT 5SM BR BKN027 OVC033 12/12 A2965 RMK AO2
Loading
Personal Weather Stations






























Interactive Weather Map New forecast layout! Learn more

10-Day Weather Forecast

Advertisements
Track Severe Weather on mobile